createdAt,value
2019-06-20T00:01:27.564Z,3.20
2019-06-20T00:03:31.204Z,3.12
2019-06-20T00:05:35.003Z,3.17
2019-06-20T00:07:38.657Z,3.02
2019-06-20T00:09:42.351Z,3.17
2019-06-20T00:11:46.322Z,3.45
2019-06-20T00:13:50.022Z,3.47
2019-06-20T00:15:53.706Z,3.40
2019-06-20T00:17:57.417Z,3.72
2019-06-20T00:20:01.117Z,3.85
2019-06-20T00:22:04.747Z,3.60
2019-06-20T00:24:08.382Z,3.47
2019-06-20T00:26:12.014Z,4.05
2019-06-20T00:28:19.343Z,3.92
2019-06-20T00:30:23.052Z,3.77
2019-06-20T00:32:28.661Z,3.70
2019-06-20T00:34:32.166Z,4.05
2019-06-20T00:36:35.991Z,3.90
2019-06-20T00:38:39.691Z,4.00
2019-06-20T00:40:43.324Z,4.10
2019-06-20T00:42:46.920Z,4.42
2019-06-20T00:44:53.489Z,3.87
2019-06-20T00:46:57.149Z,4.40
2019-06-20T00:49:00.841Z,4.05
2019-06-20T00:51:04.535Z,4.30
2019-06-20T00:53:08.178Z,4.42
2019-06-20T00:55:11.801Z,4.55
2019-06-20T00:57:15.463Z,4.78
2019-06-20T00:59:19.211Z,4.83
2019-06-20T01:01:22.878Z,4.45
2019-06-20T01:03:26.571Z,3.77
2019-06-20T01:05:30.322Z,4.47
2019-06-20T01:07:34.140Z,4.47
2019-06-20T01:09:37.786Z,4.47
2019-06-20T01:11:41.440Z,4.30
2019-06-20T01:13:45.095Z,4.55
2019-06-20T01:15:48.863Z,4.37
2019-06-20T01:17:52.576Z,3.95
2019-06-20T01:19:58.266Z,4.30
2019-06-20T01:22:01.607Z,4.50
2019-06-20T01:24:05.419Z,5.10
2019-06-20T01:26:09.120Z,4.60
2019-06-20T01:28:12.823Z,5.00
2019-06-20T01:30:18.118Z,4.62
2019-06-20T01:32:23.267Z,4.62
2019-06-20T01:34:28.366Z,5.03
2019-06-20T01:36:31.993Z,4.80
2019-06-20T01:38:35.718Z,4.72
2019-06-20T01:40:39.425Z,5.15
2019-06-20T01:42:43.046Z,4.58
2019-06-20T01:44:46.693Z,4.72
2019-06-20T01:46:50.323Z,5.20
2019-06-20T01:48:53.957Z,4.83
2019-06-20T01:50:57.583Z,4.87
2019-06-20T01:53:01.211Z,4.83
2019-06-20T01:55:05.088Z,4.47
2019-06-20T01:57:12.093Z,4.97
2019-06-20T01:59:15.783Z,4.75
2019-06-20T02:01:19.428Z,4.78
2019-06-20T02:03:23.553Z,4.78
2019-06-20T02:05:27.175Z,5.00
2019-06-20T02:07:30.900Z,5.03
2019-06-20T02:09:34.660Z,4.60
2019-06-20T02:11:38.382Z,4.53
2019-06-20T02:13:42.037Z,4.45
2019-06-20T02:15:45.639Z,4.95
2019-06-20T02:17:49.295Z,4.20
2019-06-20T02:19:52.925Z,4.40
2019-06-20T02:21:56.564Z,4.25
2019-06-20T02:24:00.381Z,4.00
2019-06-20T02:26:04.093Z,3.95
2019-06-20T02:28:07.712Z,3.62
2019-06-20T02:30:11.478Z,3.60
2019-06-20T02:32:15.274Z,4.00
2019-06-20T02:34:18.951Z,3.95
2019-06-20T02:36:22.577Z,3.83
2019-06-20T02:38:26.204Z,3.95
2019-06-20T02:40:29.892Z,3.72
2019-06-20T02:42:33.524Z,3.42
2019-06-20T02:44:37.172Z,3.90
2019-06-20T02:46:41.053Z,3.87
2019-06-20T02:48:44.766Z,3.60
2019-06-20T02:50:48.496Z,3.80
2019-06-20T02:52:52.579Z,3.87
2019-06-20T02:54:56.195Z,4.25
2019-06-20T02:56:59.857Z,4.35
2019-06-20T02:59:03.472Z,4.40
2019-06-20T03:01:07.104Z,4.50
2019-06-20T03:03:10.713Z,4.28
2019-06-20T03:05:14.327Z,5.15
2019-06-20T03:07:17.982Z,4.05
2019-06-20T03:09:21.609Z,4.10
2019-06-20T03:11:25.242Z,3.95
2019-06-20T03:13:29.003Z,4.40
2019-06-20T03:15:32.636Z,4.22
2019-06-20T03:17:36.271Z,4.42
2019-06-20T03:19:39.881Z,4.03
2019-06-20T03:21:43.488Z,4.40
2019-06-20T03:23:47.131Z,3.85
2019-06-20T03:25:50.767Z,3.92
2019-06-20T03:27:54.421Z,4.08
2019-06-20T03:29:58.036Z,3.80
2019-06-20T03:32:01.740Z,4.10
2019-06-20T03:34:05.382Z,4.22
2019-06-20T03:36:09.009Z,3.65
2019-06-20T03:38:12.649Z,4.42
2019-06-20T03:40:16.335Z,3.52
2019-06-20T03:42:20.009Z,3.92
2019-06-20T03:44:23.661Z,4.08
2019-06-20T03:46:27.275Z,3.62
2019-06-20T03:48:31.003Z,3.95
2019-06-20T03:50:34.689Z,3.90
2019-06-20T03:52:38.409Z,3.90
2019-06-20T03:54:42.085Z,3.80
2019-06-20T03:56:45.791Z,3.55
2019-06-20T03:58:49.789Z,4.10
2019-06-20T04:00:53.477Z,4.03
2019-06-20T04:02:57.198Z,3.83
2019-06-20T04:05:00.899Z,3.90
2019-06-20T04:07:04.519Z,3.85
2019-06-20T04:09:08.216Z,3.70
2019-06-20T04:11:11.855Z,3.52
2019-06-20T04:13:15.539Z,3.75
2019-06-20T04:15:19.838Z,3.65
2019-06-20T04:17:23.573Z,3.72
2019-06-20T04:19:27.304Z,4.40
2019-06-20T04:21:31.076Z,3.92
2019-06-20T04:23:35.405Z,3.47
2019-06-20T04:25:39.685Z,4.00
2019-06-20T04:27:43.311Z,4.05
2019-06-20T04:29:46.952Z,4.60
2019-06-20T04:31:50.593Z,4.05
2019-06-20T04:33:54.236Z,4.47
2019-06-20T04:35:57.912Z,4.20
2019-06-20T04:38:01.554Z,4.80
2019-06-20T04:40:05.530Z,4.45
2019-06-20T04:42:09.317Z,4.55
2019-06-20T04:44:12.947Z,4.65
2019-06-20T04:46:25.189Z,3.87
2019-06-20T04:48:28.828Z,4.22
2019-06-20T04:50:32.528Z,4.60
2019-06-20T04:52:36.243Z,4.20
2019-06-20T04:54:39.913Z,4.45
2019-06-20T04:56:43.628Z,5.65
2019-06-20T04:58:47.371Z,4.90
2019-06-20T05:00:51.093Z,7.67
2019-06-20T05:02:54.778Z,5.35
2019-06-20T05:04:58.770Z,4.95
2019-06-20T05:07:05.553Z,4.47
2019-06-20T05:09:09.280Z,4.67
2019-06-20T05:11:12.995Z,4.60
2019-06-20T05:13:16.711Z,4.12
2019-06-20T05:15:20.352Z,4.53
2019-06-20T05:17:23.982Z,3.83
2019-06-20T05:19:27.607Z,4.40
2019-06-20T05:21:32.678Z,4.62
2019-06-20T05:23:36.302Z,9.70
2019-06-20T05:25:40.346Z,5.60
2019-06-20T05:27:43.994Z,4.33
2019-06-20T05:29:47.765Z,4.45
2019-06-20T05:31:51.394Z,5.60
2019-06-20T05:33:55.102Z,4.67
2019-06-20T05:35:58.776Z,4.67
2019-06-20T05:38:02.642Z,3.90
2019-06-20T05:40:06.928Z,4.33
2019-06-20T05:42:10.614Z,4.50
2019-06-20T05:44:14.253Z,4.58
2019-06-20T05:46:18.030Z,4.87
2019-06-20T05:48:21.663Z,4.83
2019-06-20T05:50:25.522Z,4.70
2019-06-20T05:52:29.548Z,4.67
2019-06-20T05:54:33.169Z,5.12
2019-06-20T05:56:36.814Z,4.97
2019-06-20T05:58:40.529Z,4.58
2019-06-20T06:00:44.221Z,5.15
2019-06-20T06:02:47.929Z,5.15
2019-06-20T06:04:51.630Z,5.72
2019-06-20T06:06:55.266Z,5.67
2019-06-20T06:08:58.937Z,5.72
2019-06-20T06:11:02.637Z,5.80
2019-06-20T06:13:06.262Z,6.10
2019-06-20T06:15:09.917Z,6.10
2019-06-20T06:17:13.655Z,5.37
2019-06-20T06:19:17.411Z,5.30
2019-06-20T06:21:21.126Z,5.37
2019-06-20T06:23:24.908Z,6.20
2019-06-20T06:25:28.539Z,6.00
2019-06-20T06:27:32.452Z,6.55
2019-06-20T06:29:36.161Z,6.33
2019-06-20T06:31:39.802Z,6.50
2019-06-20T06:33:43.594Z,7.10
2019-06-20T06:35:47.272Z,6.95
2019-06-20T06:37:50.908Z,7.10
2019-06-20T06:39:54.626Z,6.90
2019-06-20T06:41:58.245Z,7.42
2019-06-20T06:44:02.033Z,7.37
2019-06-20T06:46:05.666Z,7.75
2019-06-20T06:48:09.389Z,8.48
2019-06-20T06:50:13.216Z,7.97
2019-06-20T06:52:17.010Z,7.55
2019-06-20T06:54:20.714Z,7.30
2019-06-20T06:56:24.365Z,8.00
2019-06-20T06:58:28.081Z,8.28
2019-06-20T07:00:31.715Z,9.08
2019-06-20T07:02:35.361Z,8.78
2019-06-20T07:04:38.989Z,9.13
2019-06-20T07:06:42.958Z,9.10
2019-06-20T07:08:46.769Z,9.28
2019-06-20T07:10:50.404Z,9.80
2019-06-20T07:12:54.041Z,9.50
2019-06-20T07:14:57.687Z,10.00
2019-06-20T07:17:01.329Z,10.32
2019-06-20T07:19:05.166Z,9.95
2019-06-20T07:21:08.797Z,10.28
2019-06-20T07:23:12.480Z,10.63
2019-06-20T07:25:17.195Z,9.83
2019-06-20T07:27:20.832Z,10.75
2019-06-20T07:29:24.452Z,11.53
2019-06-20T07:31:28.108Z,10.50
2019-06-20T07:33:31.804Z,10.78
2019-06-20T07:35:36.119Z,10.48
2019-06-20T07:37:39.806Z,10.45
2019-06-20T07:39:43.498Z,10.65
2019-06-20T07:41:47.460Z,10.18
2019-06-20T07:43:51.393Z,11.70
2019-06-20T07:46:02.495Z,10.95
2019-06-20T07:48:00.535Z,10.65
2019-06-20T07:50:05.139Z,12.70
2019-06-20T07:52:08.949Z,12.55
2019-06-20T07:54:12.731Z,11.97
2019-06-20T07:56:16.356Z,11.55
2019-06-20T07:58:20.213Z,11.75
2019-06-20T08:00:23.838Z,11.43
2019-06-20T08:02:27.486Z,11.20
2019-06-20T08:04:31.390Z,9.98
2019-06-20T08:06:35.535Z,10.80
2019-06-20T08:08:39.183Z,10.82
2019-06-20T08:10:42.829Z,11.15
2019-06-20T08:12:48.603Z,10.32
2019-06-20T08:14:52.493Z,10.95
2019-06-20T08:16:56.252Z,11.68
2019-06-20T08:18:59.913Z,11.20
2019-06-20T08:21:03.696Z,10.50
2019-06-20T08:23:07.435Z,11.15
2019-06-20T08:25:11.392Z,11.28
2019-06-20T08:27:15.153Z,11.22
2019-06-20T08:29:21.270Z,11.40
2019-06-20T08:31:24.208Z,12.47
2019-06-20T08:33:27.938Z,13.80
2019-06-20T08:35:32.233Z,14.28
2019-06-20T08:37:35.875Z,15.13
2019-06-20T08:39:39.515Z,15.38
2019-06-20T08:41:43.253Z,16.32
2019-06-20T08:43:46.980Z,15.53
2019-06-20T08:45:50.632Z,16.57
2019-06-20T08:47:56.472Z,16.12
2019-06-20T08:49:59.845Z,15.32
2019-06-20T08:52:03.589Z,14.98
2019-06-20T08:54:07.357Z,14.38
2019-06-20T08:56:11.042Z,13.50
2019-06-20T08:58:14.680Z,13.85
2019-06-20T09:00:18.790Z,12.95
2019-06-20T09:02:22.434Z,12.37
2019-06-20T09:04:26.072Z,11.50
2019-06-20T09:06:29.808Z,10.88
2019-06-20T09:08:33.512Z,10.20
2019-06-20T09:10:40.478Z,9.88
2019-06-20T09:12:44.140Z,10.05
2019-06-20T09:14:47.838Z,9.08
2019-06-20T09:16:52.294Z,10.05
2019-06-20T09:18:56.759Z,9.38
2019-06-20T09:21:00.627Z,9.78
2019-06-20T09:23:04.415Z,9.33
2019-06-20T09:25:08.270Z,10.40
2019-06-20T09:27:11.910Z,9.78
2019-06-20T09:29:15.605Z,9.83
2019-06-20T09:31:19.336Z,8.30
2019-06-20T09:33:22.960Z,9.40
2019-06-20T09:35:26.610Z,9.10
2019-06-20T09:37:30.443Z,8.35
2019-06-20T09:39:34.228Z,8.18
2019-06-20T09:41:37.921Z,8.58
2019-06-20T09:43:41.657Z,7.92
2019-06-20T09:45:45.290Z,8.08
2019-06-20T09:47:50.390Z,9.05
2019-06-20T09:49:56.024Z,8.25
2019-06-20T09:52:00.221Z,8.50
2019-06-20T09:54:03.909Z,7.78
2019-06-20T09:56:07.574Z,8.55
2019-06-20T09:58:11.602Z,8.68
2019-06-20T10:00:15.849Z,8.15
2019-06-20T10:02:19.556Z,9.90
2019-06-20T10:04:23.256Z,9.35
2019-06-20T10:06:26.965Z,10.03
2019-06-20T10:08:30.686Z,9.93
2019-06-20T10:10:34.296Z,8.33
2019-06-20T10:12:37.925Z,7.62
2019-06-20T10:14:41.559Z,8.00
2019-06-20T10:16:47.574Z,8.25
2019-06-20T10:18:50.537Z,8.75
2019-06-20T10:20:54.140Z,8.83
2019-06-20T10:22:57.760Z,7.92
2019-06-20T10:25:01.507Z,7.62
2019-06-20T10:27:05.229Z,7.90
2019-06-20T10:29:08.924Z,7.62
2019-06-20T10:31:12.630Z,7.22
2019-06-20T10:33:16.262Z,6.97
2019-06-20T10:35:20.214Z,7.25
2019-06-20T10:37:23.852Z,8.05
2019-06-20T10:39:27.468Z,7.78
2019-06-20T10:41:31.104Z,8.75
2019-06-20T10:43:34.854Z,7.80
2019-06-20T10:45:38.713Z,8.80
2019-06-20T10:47:44.077Z,7.97
2019-06-20T10:49:47.994Z,9.10
2019-06-20T10:51:51.945Z,8.95
2019-06-20T10:53:55.972Z,8.43
2019-06-20T10:55:59.622Z,8.20
2019-06-20T10:58:03.532Z,8.90
2019-06-20T11:00:09.746Z,9.58
2019-06-20T11:02:13.380Z,9.03
2019-06-20T11:04:17.721Z,9.23
2019-06-20T11:06:21.342Z,8.53
2019-06-20T11:08:25.048Z,8.25
2019-06-20T11:10:29.877Z,7.95
2019-06-20T11:12:42.865Z,8.40
2019-06-20T11:14:40.300Z,8.05
2019-06-20T11:16:45.192Z,8.13
2019-06-20T11:18:49.028Z,8.98
2019-06-20T11:20:52.815Z,7.28
2019-06-20T11:22:56.441Z,7.67
2019-06-20T11:25:00.090Z,8.60
2019-06-20T11:27:03.852Z,7.58
2019-06-20T11:29:07.479Z,7.22
2019-06-20T11:31:11.108Z,7.70
2019-06-20T11:33:14.806Z,8.43
2019-06-20T11:35:18.599Z,7.95
2019-06-20T11:37:22.270Z,7.03
2019-06-20T11:39:25.953Z,8.85
2019-06-20T11:41:29.586Z,8.53
2019-06-20T11:43:34.619Z,8.08
2019-06-20T11:45:38.934Z,8.50
2019-06-20T11:47:42.859Z,7.83
2019-06-20T11:49:46.978Z,7.85
2019-06-20T11:51:50.865Z,8.30
2019-06-20T11:53:54.520Z,8.98
2019-06-20T11:55:58.187Z,8.30
2019-06-20T11:58:01.871Z,8.48
2019-06-20T12:00:06.214Z,7.85
2019-06-20T12:02:09.831Z,7.53
2019-06-20T12:04:13.556Z,7.15
2019-06-20T12:06:17.179Z,6.58
2019-06-20T12:08:20.855Z,6.15
2019-06-20T12:10:25.115Z,6.95
2019-06-20T12:12:28.886Z,8.65
2019-06-20T12:14:32.601Z,7.60
2019-06-20T12:16:36.183Z,7.28
2019-06-20T12:18:40.229Z,6.87
2019-06-20T12:20:46.682Z,6.22
2019-06-20T12:22:50.916Z,6.08
2019-06-20T12:24:54.722Z,10.75
2019-06-20T12:26:58.358Z,7.12
2019-06-20T12:29:02.077Z,7.55
2019-06-20T12:31:18.666Z,6.85
2019-06-20T12:33:11.217Z,6.90
2019-06-20T12:35:14.915Z,6.50
2019-06-20T12:37:19.881Z,7.25
2019-06-20T12:39:23.629Z,7.50
2019-06-20T12:41:27.309Z,6.55
2019-06-20T12:43:31.087Z,8.33
2019-06-20T12:45:34.809Z,6.58
2019-06-20T12:47:40.098Z,6.83
2019-06-20T12:49:43.851Z,7.22
2019-06-20T12:51:47.512Z,7.60
2019-06-20T12:53:51.247Z,7.40
2019-06-20T12:55:54.888Z,7.75
2019-06-20T12:57:58.604Z,8.10
2019-06-20T13:00:02.248Z,7.20
2019-06-20T13:02:05.941Z,8.55
2019-06-20T13:04:09.567Z,7.40
2019-06-20T13:06:13.277Z,7.35
2019-06-20T13:08:16.931Z,8.40
2019-06-20T13:10:20.760Z,8.08
2019-06-20T13:12:24.415Z,8.45
2019-06-20T13:14:28.134Z,8.10
2019-06-20T13:16:31.840Z,8.63
2019-06-20T13:18:35.478Z,7.87
2019-06-20T13:20:40.539Z,8.10
2019-06-20T13:22:44.815Z,7.90
2019-06-20T13:24:49.528Z,7.90
2019-06-20T13:26:53.821Z,7.47
2019-06-20T13:29:04.126Z,7.90
2019-06-20T13:31:03.083Z,7.95
2019-06-20T13:33:06.772Z,7.53
2019-06-20T13:35:10.810Z,7.42
2019-06-20T13:37:15.599Z,7.45
2019-06-20T13:39:19.460Z,7.33
2019-06-20T13:41:23.106Z,7.08
2019-06-20T13:43:29.134Z,7.40
2019-06-20T13:45:32.834Z,8.00
2019-06-20T13:47:36.426Z,8.08
2019-06-20T13:49:41.453Z,7.78
2019-06-20T13:51:45.875Z,8.23
2019-06-20T13:53:50.659Z,7.80
2019-06-20T13:55:54.484Z,7.80
2019-06-20T13:57:58.200Z,7.58
2019-06-20T14:00:01.830Z,7.97
2019-06-20T14:02:07.072Z,7.25
2019-06-20T14:04:11.044Z,8.40
2019-06-20T14:06:14.728Z,7.80
2019-06-20T14:08:18.480Z,8.38
2019-06-20T14:10:22.398Z,8.30
2019-06-20T14:12:26.058Z,8.10
2019-06-20T14:14:29.733Z,8.70
2019-06-20T14:16:33.394Z,8.43
2019-06-20T14:18:36.959Z,8.38
2019-06-20T14:20:43.144Z,8.90
2019-06-20T14:22:46.153Z,8.35
2019-06-20T14:24:50.842Z,7.90
2019-06-20T14:26:54.681Z,8.08
2019-06-20T14:28:58.420Z,7.80
2019-06-20T14:31:02.066Z,8.00
2019-06-20T14:33:05.692Z,7.65
2019-06-20T14:35:09.323Z,15.70
2019-06-20T14:37:12.992Z,9.03
2019-06-20T14:39:16.692Z,8.83
2019-06-20T14:41:20.255Z,8.48
2019-06-20T14:43:23.890Z,7.75
2019-06-20T14:45:27.602Z,8.48
2019-06-20T14:47:31.173Z,8.15
2019-06-20T14:49:34.804Z,9.60
2019-06-20T14:51:38.501Z,8.50
2019-06-20T14:53:43.939Z,7.60
2019-06-20T14:55:47.694Z,7.65
2019-06-20T14:57:52.470Z,7.28
2019-06-20T14:59:56.304Z,6.97
2019-06-20T15:02:00.021Z,7.58
2019-06-20T15:04:03.658Z,8.98
2019-06-20T15:06:07.302Z,7.78
2019-06-20T15:08:12.207Z,8.58
2019-06-20T15:10:16.220Z,9.13
2019-06-20T15:12:19.936Z,8.85
2019-06-20T15:14:23.583Z,8.43
2019-06-20T15:16:27.270Z,9.30
2019-06-20T15:18:31.056Z,9.35
2019-06-20T15:20:34.784Z,8.93
2019-06-20T15:22:38.476Z,8.70
2019-06-20T15:24:44.967Z,7.87
2019-06-20T15:26:49.014Z,8.40
2019-06-20T15:28:54.791Z,8.60
2019-06-20T15:30:58.156Z,8.18
2019-06-20T15:33:09.862Z,8.55
2019-06-20T15:35:07.370Z,8.35
2019-06-20T15:37:11.087Z,8.38
2019-06-20T15:39:14.815Z,8.43
2019-06-20T15:41:18.514Z,7.67
2019-06-20T15:43:22.134Z,7.62
2019-06-20T15:45:25.892Z,7.65
2019-06-20T15:47:29.610Z,7.67
2019-06-20T15:49:33.270Z,7.70
2019-06-20T15:51:36.974Z,7.55
2019-06-20T15:53:40.595Z,6.80
2019-06-20T15:55:44.221Z,7.22
2019-06-20T15:57:47.866Z,6.55
2019-06-20T15:59:51.533Z,6.95
2019-06-20T16:01:55.173Z,7.12
2019-06-20T16:03:58.813Z,31.25
2019-06-20T16:06:02.542Z,7.10
2019-06-20T16:08:06.283Z,7.28
2019-06-20T16:10:10.255Z,6.67
2019-06-20T16:12:13.937Z,7.05
2019-06-20T16:14:18.152Z,7.53
2019-06-20T16:16:22.042Z,6.95
2019-06-20T16:18:25.762Z,7.42
2019-06-20T16:20:29.487Z,6.47
2019-06-20T16:22:33.167Z,6.60
2019-06-20T16:24:36.821Z,6.95
2019-06-20T16:26:40.570Z,7.10
2019-06-20T16:28:44.683Z,6.60
2019-06-20T16:30:48.311Z,7.17
2019-06-20T16:32:51.956Z,7.58
2019-06-20T16:34:55.581Z,6.45
2019-06-20T16:37:09.701Z,6.20
2019-06-20T16:39:06.801Z,6.33
2019-06-20T16:41:10.523Z,6.22
2019-06-20T16:43:14.152Z,6.15
2019-06-20T16:45:18.087Z,6.53
2019-06-20T16:47:21.793Z,6.75
2019-06-20T16:49:25.460Z,6.03
2019-06-20T16:51:29.162Z,6.33
2019-06-20T16:53:32.796Z,6.95
2019-06-20T16:55:36.421Z,6.53
2019-06-20T16:57:40.040Z,6.12
2019-06-20T16:59:43.825Z,6.33
2019-06-20T17:01:47.537Z,6.65
2019-06-20T17:03:51.285Z,5.97
2019-06-20T17:05:54.995Z,6.28
2019-06-20T17:07:58.622Z,6.37
2019-06-20T17:10:02.358Z,6.33
2019-06-20T17:12:06.061Z,6.28
2019-06-20T17:14:10.079Z,6.17
2019-06-20T17:16:13.846Z,6.40
2019-06-20T17:18:17.497Z,6.42
2019-06-20T17:20:21.561Z,6.62
2019-06-20T17:22:25.415Z,6.28
2019-06-20T17:24:29.146Z,7.10
2019-06-20T17:26:33.017Z,6.33
2019-06-20T17:28:36.829Z,9.38
2019-06-20T17:30:40.485Z,5.92
2019-06-20T17:32:44.154Z,6.12
2019-06-20T17:34:47.833Z,6.65
2019-06-20T17:36:51.528Z,6.40
2019-06-20T17:38:55.260Z,6.08
2019-06-20T17:40:58.969Z,6.80
2019-06-20T17:43:02.705Z,6.40
2019-06-20T17:45:07.983Z,6.47
2019-06-20T17:47:11.635Z,6.58
2019-06-20T17:49:15.362Z,6.30
2019-06-20T17:51:19.002Z,7.55
2019-06-20T17:53:22.626Z,6.90
2019-06-20T17:55:26.358Z,6.58
2019-06-20T17:57:30.004Z,6.40
2019-06-20T17:59:33.653Z,6.62
2019-06-20T18:01:37.370Z,6.30
2019-06-20T18:03:41.018Z,6.25
2019-06-20T18:05:44.748Z,6.17
2019-06-20T18:07:48.365Z,6.42
2019-06-20T18:09:53.726Z,6.42
2019-06-20T18:11:57.365Z,6.20
2019-06-20T18:14:01.091Z,6.12
2019-06-20T18:16:05.010Z,6.55
2019-06-20T18:18:08.658Z,6.37
2019-06-20T18:20:12.313Z,7.08
2019-06-20T18:22:16.093Z,8.20
2019-06-20T18:24:19.734Z,8.73
2019-06-20T18:26:23.463Z,9.60
2019-06-20T18:28:27.164Z,9.95
2019-06-20T18:30:37.481Z,10.13
2019-06-20T18:32:41.131Z,9.35
2019-06-20T18:35:00.493Z,8.90
2019-06-20T18:36:50.244Z,8.50
2019-06-20T18:38:55.157Z,8.48
2019-06-20T18:40:58.855Z,7.50
2019-06-20T18:43:02.813Z,7.65
2019-06-20T18:45:06.865Z,7.60
2019-06-20T18:47:10.668Z,6.80
2019-06-20T18:49:14.595Z,6.72
2019-06-20T18:51:18.396Z,6.87
2019-06-20T18:53:22.059Z,6.95
2019-06-20T18:55:25.854Z,6.65
2019-06-20T18:57:29.596Z,7.40
2019-06-20T18:59:33.341Z,6.85
2019-06-20T19:01:37.062Z,7.35
2019-06-20T19:03:40.801Z,7.12
2019-06-20T19:05:44.620Z,6.28
2019-06-20T19:07:48.370Z,6.70
2019-06-20T19:09:52.090Z,6.47
2019-06-20T19:11:55.773Z,6.40
2019-06-20T19:13:59.503Z,6.67
2019-06-20T19:16:03.212Z,5.95
2019-06-20T19:18:07.069Z,5.92
2019-06-20T19:20:10.860Z,5.70
2019-06-20T19:22:14.622Z,6.10
2019-06-20T19:24:18.443Z,5.72
2019-06-20T19:26:22.161Z,6.10
2019-06-20T19:28:25.905Z,6.33
2019-06-20T19:30:34.082Z,5.95
2019-06-20T19:32:38.080Z,6.08
2019-06-20T19:34:41.854Z,5.85
2019-06-20T19:36:45.500Z,5.50
2019-06-20T19:38:49.220Z,5.87
2019-06-20T19:40:53.496Z,6.53
2019-06-20T19:42:57.246Z,6.92
2019-06-20T19:45:00.960Z,8.08
2019-06-20T19:47:04.715Z,6.83
2019-06-20T19:49:08.429Z,6.60
2019-06-20T19:51:13.074Z,7.58
2019-06-20T19:53:16.811Z,7.42
2019-06-20T19:55:20.512Z,7.60
2019-06-20T19:57:24.165Z,7.47
2019-06-20T19:59:27.881Z,7.42
2019-06-20T20:01:31.640Z,7.55
2019-06-20T20:03:35.339Z,8.18
2019-06-20T20:05:39.068Z,8.30
2019-06-20T20:07:42.821Z,8.58
2019-06-20T20:09:46.575Z,7.87
2019-06-20T20:11:50.382Z,7.75
2019-06-20T20:13:55.685Z,7.90
2019-06-20T20:16:00.727Z,7.58
2019-06-20T20:18:04.478Z,8.05
2019-06-20T20:20:08.320Z,7.45
2019-06-20T20:22:12.300Z,7.95
2019-06-20T20:24:15.956Z,9.10
2019-06-20T20:26:19.667Z,7.87
2019-06-20T20:28:23.440Z,8.10
2019-06-20T20:30:27.256Z,8.40
2019-06-20T20:32:30.981Z,7.53
2019-06-20T20:34:34.717Z,7.78
2019-06-20T20:36:38.436Z,7.53
2019-06-20T20:38:42.071Z,8.20
2019-06-20T20:40:45.717Z,8.23
2019-06-20T20:42:49.386Z,9.20
2019-06-20T20:44:53.035Z,7.97
2019-06-20T20:46:56.724Z,8.08
2019-06-20T20:49:00.365Z,8.58
2019-06-20T20:51:04.063Z,9.15
2019-06-20T20:53:07.724Z,8.53
2019-06-20T20:55:11.729Z,8.85
2019-06-20T20:57:15.356Z,8.45
2019-06-20T20:59:19.009Z,7.83
2019-06-20T21:01:25.719Z,8.30
2019-06-20T21:03:29.440Z,7.92
2019-06-20T21:05:33.197Z,7.53
2019-06-20T21:07:39.126Z,7.42
2019-06-20T21:09:42.281Z,9.55
2019-06-20T21:11:46.076Z,8.43
2019-06-20T21:13:49.832Z,7.62
2019-06-20T21:15:53.563Z,8.60
2019-06-20T21:17:57.239Z,7.70
2019-06-20T21:20:00.895Z,7.90
2019-06-20T21:22:04.578Z,7.78
2019-06-20T21:24:08.207Z,7.53
2019-06-20T21:26:11.857Z,8.03
2019-06-20T21:28:15.600Z,6.90
2019-06-20T21:30:19.458Z,7.53
2019-06-20T21:32:23.241Z,7.15
2019-06-20T21:34:26.868Z,6.90
2019-06-20T21:36:30.587Z,7.90
2019-06-20T21:38:34.237Z,8.13
2019-06-20T21:40:37.893Z,8.10
2019-06-20T21:42:41.531Z,8.38
2019-06-20T21:44:45.247Z,7.83
2019-06-20T21:46:48.954Z,8.63
2019-06-20T21:48:52.626Z,9.68
2019-06-20T21:50:56.281Z,9.03
2019-06-20T21:53:00.078Z,9.20
2019-06-20T21:55:04.342Z,9.45
2019-06-20T21:57:08.065Z,9.58
2019-06-20T21:59:11.849Z,9.38
2019-06-20T22:01:15.779Z,9.58
2019-06-20T22:03:19.546Z,9.93
2019-06-20T22:05:23.467Z,9.20
2019-06-20T22:07:27.349Z,9.40
2019-06-20T22:09:30.990Z,9.23
2019-06-20T22:11:34.690Z,8.68
2019-06-20T22:13:38.313Z,8.88
2019-06-20T22:15:41.967Z,9.28
2019-06-20T22:17:45.669Z,9.00
2019-06-20T22:19:49.321Z,9.53
2019-06-20T22:21:52.930Z,8.63
2019-06-20T22:23:56.572Z,8.58
2019-06-20T22:26:00.291Z,8.40
2019-06-20T22:28:04.115Z,8.53
2019-06-20T22:30:08.435Z,8.23
2019-06-20T22:32:12.095Z,8.28
2019-06-20T22:34:15.831Z,8.20
2019-06-20T22:36:19.559Z,8.35
2019-06-20T22:38:23.196Z,8.70
2019-06-20T22:40:26.835Z,7.53
2019-06-20T22:42:30.566Z,8.08
2019-06-20T22:44:34.209Z,8.00
2019-06-20T22:46:37.863Z,8.18
2019-06-20T22:48:41.571Z,7.87
2019-06-20T22:50:45.308Z,8.30
2019-06-20T22:52:48.930Z,8.33
2019-06-20T22:54:52.586Z,7.37
2019-06-20T22:56:56.460Z,7.83
2019-06-20T22:59:00.174Z,7.55
2019-06-20T23:01:03.914Z,6.97
2019-06-20T23:03:07.629Z,7.15
2019-06-20T23:05:11.260Z,7.42
2019-06-20T23:07:14.870Z,6.72
2019-06-20T23:09:18.663Z,7.25
2019-06-20T23:11:22.485Z,6.95
2019-06-20T23:13:26.236Z,6.65
2019-06-20T23:15:30.049Z,7.03
2019-06-20T23:17:33.677Z,7.30
2019-06-20T23:19:37.303Z,6.62
2019-06-20T23:21:41.116Z,7.28
2019-06-20T23:23:44.845Z,7.10
2019-06-20T23:25:50.978Z,7.25
2019-06-20T23:27:54.679Z,6.53
2019-06-20T23:29:58.383Z,7.53
2019-06-20T23:32:02.033Z,7.97
2019-06-20T23:34:05.739Z,7.65
2019-06-20T23:36:09.366Z,8.23
2019-06-20T23:38:13.004Z,7.37
2019-06-20T23:40:17.713Z,7.92
2019-06-20T23:42:21.428Z,7.92
2019-06-20T23:44:25.069Z,8.75
2019-06-20T23:46:28.717Z,8.60
2019-06-20T23:48:32.352Z,8.90
2019-06-20T23:50:35.991Z,8.90
2019-06-20T23:52:41.478Z,9.38
2019-06-20T23:54:45.223Z,9.33
2019-06-20T23:56:48.910Z,8.78
2019-06-20T23:58:52.630Z,9.63
